sensor_id;sensor_type;location;lat;lon;timestamp;P1;durP1;ratioP1;P2;durP2;ratioP2
69837;SDS011;57135;51.992;4.476;2022-10-16T00:00:04;2.33;;;2.33;;
69837;SDS011;57135;51.992;4.476;2022-10-16T00:02:42;2.11;;;2.11;;
69837;SDS011;57135;51.992;4.476;2022-10-16T00:09:04;1.97;;;1.97;;
69837;SDS011;57135;51.992;4.476;2022-10-16T00:12:10;2.03;;;2.03;;
69837;SDS011;57135;51.992;4.476;2022-10-16T00:17:49;1.98;;;1.98;;
69837;SDS011;57135;51.992;4.476;2022-10-16T00:23:55;1.66;;;1.66;;
69837;SDS011;57135;51.992;4.476;2022-10-16T00:27:12;1.80;;;1.78;;
69837;SDS011;57135;51.992;4.476;2022-10-16T01:24:50;2.27;;;2.27;;
69837;SDS011;57135;51.992;4.476;2022-10-16T01:41:09;2.23;;;2.20;;
69837;SDS011;57135;51.992;4.476;2022-10-16T01:54:16;2.27;;;2.26;;
69837;SDS011;57135;51.992;4.476;2022-10-16T02:31:13;2.95;;;2.95;;
69837;SDS011;57135;51.992;4.476;2022-10-16T02:44:20;2.69;;;2.69;;
69837;SDS011;57135;51.992;4.476;2022-10-16T02:46:46;2.57;;;2.57;;
69837;SDS011;57135;51.992;4.476;2022-10-16T02:49:11;2.33;;;2.33;;
69837;SDS011;57135;51.992;4.476;2022-10-16T02:51:36;2.48;;;2.48;;
69837;SDS011;57135;51.992;4.476;2022-10-16T02:54:02;2.37;;;2.37;;
69837;SDS011;57135;51.992;4.476;2022-10-16T02:56:28;2.36;;;2.36;;
69837;SDS011;57135;51.992;4.476;2022-10-16T02:58:55;2.59;;;2.59;;
69837;SDS011;57135;51.992;4.476;2022-10-16T03:01:20;2.32;;;2.32;;
69837;SDS011;57135;51.992;4.476;2022-10-16T03:06:15;2.19;;;2.19;;
69837;SDS011;57135;51.992;4.476;2022-10-16T03:08:41;2.39;;;2.35;;
69837;SDS011;57135;51.992;4.476;2022-10-16T03:11:06;2.40;;;2.38;;
69837;SDS011;57135;51.992;4.476;2022-10-16T03:13:31;2.56;;;2.51;;
69837;SDS011;57135;51.992;4.476;2022-10-16T03:15:57;2.58;;;2.53;;
69837;SDS011;57135;51.992;4.476;2022-10-16T03:18:22;2.35;;;2.31;;
69837;SDS011;57135;51.992;4.476;2022-10-16T03:20:48;2.54;;;2.49;;
69837;SDS011;57135;51.992;4.476;2022-10-16T03:23:13;2.52;;;2.46;;
69837;SDS011;57135;51.992;4.476;2022-10-16T03:25:39;2.31;;;2.27;;
69837;SDS011;57135;51.992;4.476;2022-10-16T03:28:04;2.71;;;2.66;;
69837;SDS011;57135;51.992;4.476;2022-10-16T03:30:30;2.44;;;2.39;;
69837;SDS011;57135;51.992;4.476;2022-10-16T03:32:55;2.64;;;2.60;;
69837;SDS011;57135;51.992;4.476;2022-10-16T03:35:21;2.58;;;2.54;;
69837;SDS011;57135;51.992;4.476;2022-10-16T03:37:47;2.23;;;2.21;;
69837;SDS011;57135;51.992;4.476;2022-10-16T03:40:12;2.09;;;2.05;;
69837;SDS011;57135;51.992;4.476;2022-10-16T03:42:38;2.27;;;2.17;;
69837;SDS011;57135;51.992;4.476;2022-10-16T03:45:03;2.42;;;2.32;;
69837;SDS011;57135;51.992;4.476;2022-10-16T03:47:29;2.44;;;2.33;;
69837;SDS011;57135;51.992;4.476;2022-10-16T03:49:57;2.18;;;2.09;;
69837;SDS011;57135;51.992;4.476;2022-10-16T03:52:23;2.39;;;2.31;;
69837;SDS011;57135;51.992;4.476;2022-10-16T03:54:48;2.18;;;2.12;;
69837;SDS011;57135;51.992;4.476;2022-10-16T03:57:14;2.35;;;2.26;;
69837;SDS011;57135;51.992;4.476;2022-10-16T03:59:39;2.26;;;2.15;;
69837;SDS011;57135;51.992;4.476;2022-10-16T04:02:05;2.31;;;2.22;;
69837;SDS011;57135;51.992;4.476;2022-10-16T04:04:30;2.17;;;2.10;;
69837;SDS011;57135;51.992;4.476;2022-10-16T04:06:55;2.16;;;2.10;;
69837;SDS011;57135;51.992;4.476;2022-10-16T04:09:21;2.17;;;2.11;;
69837;SDS011;57135;51.992;4.476;2022-10-16T04:11:46;2.06;;;2.01;;
69837;SDS011;57135;51.992;4.476;2022-10-16T04:14:12;2.28;;;2.24;;
69837;SDS011;57135;51.992;4.476;2022-10-16T04:16:37;2.29;;;2.25;;
69837;SDS011;57135;51.992;4.476;2022-10-16T04:19:03;2.15;;;2.11;;
69837;SDS011;57135;51.992;4.476;2022-10-16T04:21:28;2.19;;;2.14;;
69837;SDS011;57135;51.992;4.476;2022-10-16T04:23:54;2.39;;;2.34;;
69837;SDS011;57135;51.992;4.476;2022-10-16T04:26:19;2.20;;;2.19;;
69837;SDS011;57135;51.992;4.476;2022-10-16T04:28:45;2.28;;;2.27;;
69837;SDS011;57135;51.992;4.476;2022-10-16T04:31:10;2.34;;;2.31;;
69837;SDS011;57135;51.992;4.476;2022-10-16T04:33:36;2.39;;;2.37;;
69837;SDS011;57135;51.992;4.476;2022-10-16T04:36:02;2.53;;;2.48;;
69837;SDS011;57135;51.992;4.476;2022-10-16T04:38:28;2.46;;;2.42;;
69837;SDS011;57135;51.992;4.476;2022-10-16T04:40:54;2.48;;;2.45;;
69837;SDS011;57135;51.992;4.476;2022-10-16T04:43:20;2.59;;;2.55;;
69837;SDS011;57135;51.992;4.476;2022-10-16T04:45:46;2.50;;;2.45;;
69837;SDS011;57135;51.992;4.476;2022-10-16T04:48:12;2.43;;;2.38;;
69837;SDS011;57135;51.992;4.476;2022-10-16T04:50:38;2.43;;;2.38;;
69837;SDS011;57135;51.992;4.476;2022-10-16T04:53:03;2.46;;;2.41;;
69837;SDS011;57135;51.992;4.476;2022-10-16T04:55:28;2.33;;;2.27;;
69837;SDS011;57135;51.992;4.476;2022-10-16T04:57:54;2.44;;;2.37;;
69837;SDS011;57135;51.992;4.476;2022-10-16T05:00:20;2.40;;;2.33;;
69837;SDS011;57135;51.992;4.476;2022-10-16T05:02:45;2.53;;;2.46;;
69837;SDS011;57135;51.992;4.476;2022-10-16T05:05:11;2.50;;;2.43;;
69837;SDS011;57135;51.992;4.476;2022-10-16T05:07:36;2.42;;;2.34;;
69837;SDS011;57135;51.992;4.476;2022-10-16T05:10:02;2.52;;;2.49;;
69837;SDS011;57135;51.992;4.476;2022-10-16T05:12:28;2.42;;;2.40;;
69837;SDS011;57135;51.992;4.476;2022-10-16T05:14:53;2.28;;;2.23;;
69837;SDS011;57135;51.992;4.476;2022-10-16T05:17:23;2.40;;;2.32;;
69837;SDS011;57135;51.992;4.476;2022-10-16T05:19:51;2.43;;;2.34;;
69837;SDS011;57135;51.992;4.476;2022-10-16T05:22:17;2.51;;;2.41;;
69837;SDS011;57135;51.992;4.476;2022-10-16T05:24:42;2.52;;;2.40;;
69837;SDS011;57135;51.992;4.476;2022-10-16T05:27:08;2.62;;;2.55;;
69837;SDS011;57135;51.992;4.476;2022-10-16T05:29:33;2.53;;;2.48;;
69837;SDS011;57135;51.992;4.476;2022-10-16T05:32:00;2.59;;;2.52;;
69837;SDS011;57135;51.992;4.476;2022-10-16T05:34:25;2.52;;;2.44;;
69837;SDS011;57135;51.992;4.476;2022-10-16T05:36:51;2.71;;;2.62;;
69837;SDS011;57135;51.992;4.476;2022-10-16T05:39:16;2.76;;;2.67;;
69837;SDS011;57135;51.992;4.476;2022-10-16T05:41:42;2.53;;;2.49;;
69837;SDS011;57135;51.992;4.476;2022-10-16T05:44:07;2.54;;;2.52;;
69837;SDS011;57135;51.992;4.476;2022-10-16T05:46:33;2.74;;;2.66;;
69837;SDS011;57135;51.992;4.476;2022-10-16T05:48:58;2.58;;;2.50;;
69837;SDS011;57135;51.992;4.476;2022-10-16T05:51:24;2.42;;;2.38;;
69837;SDS011;57135;51.992;4.476;2022-10-16T05:53:50;2.65;;;2.57;;
69837;SDS011;57135;51.992;4.476;2022-10-16T05:56:15;2.78;;;2.71;;
69837;SDS011;57135;51.992;4.476;2022-10-16T05:58:41;2.59;;;2.50;;
69837;SDS011;57135;51.992;4.476;2022-10-16T06:01:12;2.57;;;2.50;;
69837;SDS011;57135;51.992;4.476;2022-10-16T06:03:43;2.61;;;2.52;;
69837;SDS011;57135;51.992;4.476;2022-10-16T06:08:34;2.73;;;2.58;;
69837;SDS011;57135;51.992;4.476;2022-10-16T06:11:00;3.02;;;2.86;;
69837;SDS011;57135;51.992;4.476;2022-10-16T06:13:29;2.52;;;2.42;;
69837;SDS011;57135;51.992;4.476;2022-10-16T06:15:56;2.55;;;2.47;;
69837;SDS011;57135;51.992;4.476;2022-10-16T06:18:24;2.88;;;2.78;;
69837;SDS011;57135;51.992;4.476;2022-10-16T06:20:50;2.84;;;2.77;;
69837;SDS011;57135;51.992;4.476;2022-10-16T06:23:15;2.57;;;2.52;;
69837;SDS011;57135;51.992;4.476;2022-10-16T06:25:41;2.35;;;2.26;;
69837;SDS011;57135;51.992;4.476;2022-10-16T06:28:06;2.61;;;2.46;;
69837;SDS011;57135;51.992;4.476;2022-10-16T06:30:31;2.42;;;2.27;;
69837;SDS011;57135;51.992;4.476;2022-10-16T06:32:57;2.33;;;2.14;;
69837;SDS011;57135;51.992;4.476;2022-10-16T06:35:22;2.47;;;2.19;;
69837;SDS011;57135;51.992;4.476;2022-10-16T06:37:48;2.76;;;2.43;;
69837;SDS011;57135;51.992;4.476;2022-10-16T06:40:14;2.69;;;2.37;;
69837;SDS011;57135;51.992;4.476;2022-10-16T06:42:40;2.81;;;2.52;;
69837;SDS011;57135;51.992;4.476;2022-10-16T06:45:05;3.04;;;2.76;;
69837;SDS011;57135;51.992;4.476;2022-10-16T06:47:31;2.90;;;2.64;;
69837;SDS011;57135;51.992;4.476;2022-10-16T06:49:57;2.68;;;2.52;;
69837;SDS011;57135;51.992;4.476;2022-10-16T06:52:22;2.76;;;2.64;;
69837;SDS011;57135;51.992;4.476;2022-10-16T06:54:47;2.85;;;2.73;;
69837;SDS011;57135;51.992;4.476;2022-10-16T06:57:14;3.01;;;2.91;;
69837;SDS011;57135;51.992;4.476;2022-10-16T06:59:40;2.86;;;2.71;;
69837;SDS011;57135;51.992;4.476;2022-10-16T07:02:05;3.14;;;2.88;;
69837;SDS011;57135;51.992;4.476;2022-10-16T07:04:32;3.21;;;2.97;;
69837;SDS011;57135;51.992;4.476;2022-10-16T07:06:57;3.13;;;2.93;;
69837;SDS011;57135;51.992;4.476;2022-10-16T07:09:25;2.81;;;2.68;;
69837;SDS011;57135;51.992;4.476;2022-10-16T07:11:51;2.98;;;2.83;;
69837;SDS011;57135;51.992;4.476;2022-10-16T07:14:17;3.01;;;2.84;;
69837;SDS011;57135;51.992;4.476;2022-10-16T07:16:44;2.98;;;2.88;;
69837;SDS011;57135;51.992;4.476;2022-10-16T07:19:10;2.79;;;2.73;;
69837;SDS011;57135;51.992;4.476;2022-10-16T07:21:37;3.07;;;2.88;;
69837;SDS011;57135;51.992;4.476;2022-10-16T07:24:04;2.91;;;2.78;;
69837;SDS011;57135;51.992;4.476;2022-10-16T07:26:32;2.90;;;2.76;;
69837;SDS011;57135;51.992;4.476;2022-10-16T07:28:59;2.91;;;2.69;;
69837;SDS011;57135;51.992;4.476;2022-10-16T07:31:25;2.78;;;2.58;;
69837;SDS011;57135;51.992;4.476;2022-10-16T07:33:52;2.99;;;2.77;;
69837;SDS011;57135;51.992;4.476;2022-10-16T07:36:19;3.08;;;2.86;;
69837;SDS011;57135;51.992;4.476;2022-10-16T07:38:45;2.93;;;2.70;;
69837;SDS011;57135;51.992;4.476;2022-10-16T07:41:13;3.06;;;2.81;;
69837;SDS011;57135;51.992;4.476;2022-10-16T07:43:40;3.29;;;2.99;;
69837;SDS011;57135;51.992;4.476;2022-10-16T07:46:06;3.20;;;2.93;;
69837;SDS011;57135;51.992;4.476;2022-10-16T07:48:32;3.10;;;2.80;;
69837;SDS011;57135;51.992;4.476;2022-10-16T07:50:59;3.09;;;2.78;;
69837;SDS011;57135;51.992;4.476;2022-10-16T07:53:26;3.41;;;2.99;;
69837;SDS011;57135;51.992;4.476;2022-10-16T07:55:52;3.25;;;2.74;;
69837;SDS011;57135;51.992;4.476;2022-10-16T07:58:26;3.11;;;2.64;;
69837;SDS011;57135;51.992;4.476;2022-10-16T08:00:54;2.90;;;2.49;;
69837;SDS011;57135;51.992;4.476;2022-10-16T08:03:20;3.02;;;2.61;;
69837;SDS011;57135;51.992;4.476;2022-10-16T08:05:46;3.11;;;2.71;;
69837;SDS011;57135;51.992;4.476;2022-10-16T08:08:12;3.11;;;2.65;;
69837;SDS011;57135;51.992;4.476;2022-10-16T08:10:42;3.39;;;2.83;;
69837;SDS011;57135;51.992;4.476;2022-10-16T08:13:08;3.40;;;2.82;;
69837;SDS011;57135;51.992;4.476;2022-10-16T08:15:34;3.27;;;2.72;;
69837;SDS011;57135;51.992;4.476;2022-10-16T08:18:00;3.50;;;2.82;;
69837;SDS011;57135;51.992;4.476;2022-10-16T08:20:28;4.11;;;3.25;;
69837;SDS011;57135;51.992;4.476;2022-10-16T08:22:54;3.66;;;2.87;;
69837;SDS011;57135;51.992;4.476;2022-10-16T08:25:23;3.62;;;2.87;;
69837;SDS011;57135;51.992;4.476;2022-10-16T08:27:50;3.44;;;2.76;;
69837;SDS011;57135;51.992;4.476;2022-10-16T08:30:17;4.05;;;3.23;;
69837;SDS011;57135;51.992;4.476;2022-10-16T08:32:44;4.03;;;3.16;;
69837;SDS011;57135;51.992;4.476;2022-10-16T08:35:10;3.54;;;2.84;;
69837;SDS011;57135;51.992;4.476;2022-10-16T08:37:36;3.99;;;3.18;;
69837;SDS011;57135;51.992;4.476;2022-10-16T08:40:03;4.18;;;3.22;;
69837;SDS011;57135;51.992;4.476;2022-10-16T08:51:00;3.89;;;3.11;;
69837;SDS011;57135;51.992;4.476;2022-10-16T08:53:28;3.75;;;2.97;;
69837;SDS011;57135;51.992;4.476;2022-10-16T08:55:58;4.03;;;3.12;;
69837;SDS011;57135;51.992;4.476;2022-10-16T08:58:27;4.38;;;3.32;;
69837;SDS011;57135;51.992;4.476;2022-10-16T09:01:01;4.55;;;3.45;;
69837;SDS011;57135;51.992;4.476;2022-10-16T09:12:14;4.89;;;3.61;;
69837;SDS011;57135;51.992;4.476;2022-10-16T09:18:38;5.32;;;3.82;;
69837;SDS011;57135;51.992;4.476;2022-10-16T09:23:32;5.24;;;3.81;;
69837;SDS011;57135;51.992;4.476;2022-10-16T09:26:00;6.15;;;4.27;;
69837;SDS011;57135;51.992;4.476;2022-10-16T09:28:27;5.81;;;3.98;;
69837;SDS011;57135;51.992;4.476;2022-10-16T09:30:53;6.68;;;4.44;;
69837;SDS011;57135;51.992;4.476;2022-10-16T09:33:20;6.33;;;4.21;;
69837;SDS011;57135;51.992;4.476;2022-10-16T09:35:49;6.13;;;4.08;;
69837;SDS011;57135;51.992;4.476;2022-10-16T09:38:20;5.40;;;3.59;;
69837;SDS011;57135;51.992;4.476;2022-10-16T09:40:49;6.22;;;4.17;;
69837;SDS011;57135;51.992;4.476;2022-10-16T09:45:56;6.18;;;4.09;;
69837;SDS011;57135;51.992;4.476;2022-10-16T09:48:23;6.27;;;4.13;;
69837;SDS011;57135;51.992;4.476;2022-10-16T09:51:04;6.30;;;4.21;;
69837;SDS011;57135;51.992;4.476;2022-10-16T09:53:41;6.91;;;4.56;;
69837;SDS011;57135;51.992;4.476;2022-10-16T09:56:20;6.81;;;4.49;;
69837;SDS011;57135;51.992;4.476;2022-10-16T09:58:52;6.46;;;4.32;;
69837;SDS011;57135;51.992;4.476;2022-10-16T10:01:19;6.55;;;4.34;;
69837;SDS011;57135;51.992;4.476;2022-10-16T10:03:46;6.25;;;4.16;;
69837;SDS011;57135;51.992;4.476;2022-10-16T10:06:17;6.55;;;4.39;;
69837;SDS011;57135;51.992;4.476;2022-10-16T10:09:05;5.73;;;3.90;;
69837;SDS011;57135;51.992;4.476;2022-10-16T10:11:49;6.02;;;4.17;;
69837;SDS011;57135;51.992;4.476;2022-10-16T10:14:21;5.81;;;4.02;;
69837;SDS011;57135;51.992;4.476;2022-10-16T10:16:48;5.70;;;3.98;;
69837;SDS011;57135;51.992;4.476;2022-10-16T10:19:23;5.73;;;4.16;;
69837;SDS011;57135;51.992;4.476;2022-10-16T10:21:51;5.65;;;4.08;;
69837;SDS011;57135;51.992;4.476;2022-10-16T10:24:18;6.13;;;4.30;;
69837;SDS011;57135;51.992;4.476;2022-10-16T10:26:56;6.07;;;4.21;;
69837;SDS011;57135;51.992;4.476;2022-10-16T10:29:37;5.74;;;3.96;;
69837;SDS011;57135;51.992;4.476;2022-10-16T10:32:15;6.03;;;4.11;;
69837;SDS011;57135;51.992;4.476;2022-10-16T10:34:56;7.12;;;4.75;;
69837;SDS011;57135;51.992;4.476;2022-10-16T10:42:48;5.76;;;3.94;;
69837;SDS011;57135;51.992;4.476;2022-10-16T10:45:28;6.87;;;4.59;;
69837;SDS011;57135;51.992;4.476;2022-10-16T10:58:50;6.44;;;4.19;;
69837;SDS011;57135;51.992;4.476;2022-10-16T11:07:05;7.16;;;4.50;;
69837;SDS011;57135;51.992;4.476;2022-10-16T11:09:44;7.74;;;4.77;;
69837;SDS011;57135;51.992;4.476;2022-10-16T11:12:27;7.56;;;4.75;;
69837;SDS011;57135;51.992;4.476;2022-10-16T11:15:19;7.47;;;4.69;;
69837;SDS011;57135;51.992;4.476;2022-10-16T11:18:00;6.37;;;4.07;;
69837;SDS011;57135;51.992;4.476;2022-10-16T11:20:32;5.79;;;3.73;;
69837;SDS011;57135;51.992;4.476;2022-10-16T11:23:16;6.41;;;4.06;;
69837;SDS011;57135;51.992;4.476;2022-10-16T11:25:54;6.68;;;4.25;;
69837;SDS011;57135;51.992;4.476;2022-10-16T11:28:33;6.65;;;4.28;;
69837;SDS011;57135;51.992;4.476;2022-10-16T11:36:44;6.90;;;4.42;;
69837;SDS011;57135;51.992;4.476;2022-10-16T11:39:21;7.21;;;4.55;;
69837;SDS011;57135;51.992;4.476;2022-10-16T11:44:23;6.49;;;4.06;;
69837;SDS011;57135;51.992;4.476;2022-10-16T11:46:58;7.04;;;4.42;;
69837;SDS011;57135;51.992;4.476;2022-10-16T11:49:27;6.66;;;4.16;;
69837;SDS011;57135;51.992;4.476;2022-10-16T11:54:45;6.92;;;4.22;;
69837;SDS011;57135;51.992;4.476;2022-10-16T11:57:17;7.43;;;4.54;;
69837;SDS011;57135;51.992;4.476;2022-10-16T11:59:48;7.44;;;4.56;;
69837;SDS011;57135;51.992;4.476;2022-10-16T12:08:21;7.14;;;4.41;;
69837;SDS011;57135;51.992;4.476;2022-10-16T12:10:47;7.11;;;4.36;;
69837;SDS011;57135;51.992;4.476;2022-10-16T12:18:43;6.48;;;4.02;;
69837;SDS011;57135;51.992;4.476;2022-10-16T12:21:10;7.03;;;4.35;;
69837;SDS011;57135;51.992;4.476;2022-10-16T12:23:53;7.28;;;4.51;;
69837;SDS011;57135;51.992;4.476;2022-10-16T12:26:28;7.43;;;4.56;;
69837;SDS011;57135;51.992;4.476;2022-10-16T12:29:12;7.54;;;4.63;;
69837;SDS011;57135;51.992;4.476;2022-10-16T12:31:44;7.49;;;4.55;;
69837;SDS011;57135;51.992;4.476;2022-10-16T12:34:28;8.74;;;5.32;;
69837;SDS011;57135;51.992;4.476;2022-10-16T12:36:56;7.87;;;4.76;;
69837;SDS011;57135;51.992;4.476;2022-10-16T12:39:34;8.80;;;5.23;;
69837;SDS011;57135;51.992;4.476;2022-10-16T12:42:05;8.67;;;5.19;;
69837;SDS011;57135;51.992;4.476;2022-10-16T12:44:46;8.41;;;5.04;;
69837;SDS011;57135;51.992;4.476;2022-10-16T12:47:22;8.19;;;4.84;;
69837;SDS011;57135;51.992;4.476;2022-10-16T12:50:00;8.36;;;4.98;;
69837;SDS011;57135;51.992;4.476;2022-10-16T12:52:28;8.44;;;5.03;;
69837;SDS011;57135;51.992;4.476;2022-10-16T12:55:00;7.82;;;4.67;;
69837;SDS011;57135;51.992;4.476;2022-10-16T13:08:22;8.37;;;5.19;;
69837;SDS011;57135;51.992;4.476;2022-10-16T13:14:19;8.46;;;5.17;;
69837;SDS011;57135;51.992;4.476;2022-10-16T13:20:17;6.60;;;4.13;;
69837;SDS011;57135;51.992;4.476;2022-10-16T13:25:25;8.12;;;4.91;;
69837;SDS011;57135;51.992;4.476;2022-10-16T13:28:21;7.45;;;4.60;;
69837;SDS011;57135;51.992;4.476;2022-10-16T13:30:53;7.60;;;4.86;;
69837;SDS011;57135;51.992;4.476;2022-10-16T13:33:28;7.34;;;4.59;;
69837;SDS011;57135;51.992;4.476;2022-10-16T13:35:56;7.07;;;4.43;;
69837;SDS011;57135;51.992;4.476;2022-10-16T13:38:23;7.51;;;4.67;;
69837;SDS011;57135;51.992;4.476;2022-10-16T13:40:56;7.37;;;4.60;;
69837;SDS011;57135;51.992;4.476;2022-10-16T13:46:13;6.66;;;4.17;;
69837;SDS011;57135;51.992;4.476;2022-10-16T13:48:40;6.86;;;4.35;;
69837;SDS011;57135;51.992;4.476;2022-10-16T13:51:16;6.83;;;4.37;;
69837;SDS011;57135;51.992;4.476;2022-10-16T13:53:43;7.29;;;4.58;;
69837;SDS011;57135;51.992;4.476;2022-10-16T13:56:11;7.01;;;4.44;;
69837;SDS011;57135;51.992;4.476;2022-10-16T13:58:44;7.12;;;4.51;;
69837;SDS011;57135;51.992;4.476;2022-10-16T14:01:17;7.12;;;4.47;;
69837;SDS011;57135;51.992;4.476;2022-10-16T14:03:47;7.26;;;4.57;;
69837;SDS011;57135;51.992;4.476;2022-10-16T14:06:15;7.64;;;4.80;;
69837;SDS011;57135;51.992;4.476;2022-10-16T14:08:50;7.68;;;4.86;;
69837;SDS011;57135;51.992;4.476;2022-10-16T14:11:27;7.98;;;5.09;;
69837;SDS011;57135;51.992;4.476;2022-10-16T14:13:54;6.86;;;4.48;;
69837;SDS011;57135;51.992;4.476;2022-10-16T14:16:21;6.30;;;4.14;;
69837;SDS011;57135;51.992;4.476;2022-10-16T14:18:54;5.97;;;3.99;;
69837;SDS011;57135;51.992;4.476;2022-10-16T14:21:22;6.64;;;4.38;;
69837;SDS011;57135;51.992;4.476;2022-10-16T14:23:48;6.89;;;4.71;;
69837;SDS011;57135;51.992;4.476;2022-10-16T14:26:14;7.09;;;5.03;;
69837;SDS011;57135;51.992;4.476;2022-10-16T14:28:42;6.91;;;5.07;;
69837;SDS011;57135;51.992;4.476;2022-10-16T14:31:25;6.02;;;4.33;;
69837;SDS011;57135;51.992;4.476;2022-10-16T14:33:58;6.08;;;4.09;;
69837;SDS011;57135;51.992;4.476;2022-10-16T14:36:24;6.87;;;4.54;;
69837;SDS011;57135;51.992;4.476;2022-10-16T14:38:56;7.33;;;4.75;;
69837;SDS011;57135;51.992;4.476;2022-10-16T14:41:25;6.81;;;4.42;;
69837;SDS011;57135;51.992;4.476;2022-10-16T14:43:52;6.44;;;4.22;;
69837;SDS011;57135;51.992;4.476;2022-10-16T14:46:21;6.55;;;4.30;;
69837;SDS011;57135;51.992;4.476;2022-10-16T14:49:03;7.65;;;4.88;;
69837;SDS011;57135;51.992;4.476;2022-10-16T14:51:41;6.65;;;4.21;;
69837;SDS011;57135;51.992;4.476;2022-10-16T14:54:09;7.08;;;4.52;;
69837;SDS011;57135;51.992;4.476;2022-10-16T14:56:52;7.22;;;4.61;;
69837;SDS011;57135;51.992;4.476;2022-10-16T15:01:48;8.14;;;5.22;;
69837;SDS011;57135;51.992;4.476;2022-10-16T15:04:14;7.59;;;4.86;;
69837;SDS011;57135;51.992;4.476;2022-10-16T15:06:40;7.26;;;4.73;;
69837;SDS011;57135;51.992;4.476;2022-10-16T15:09:06;7.61;;;5.05;;
69837;SDS011;57135;51.992;4.476;2022-10-16T15:11:32;6.78;;;4.53;;
69837;SDS011;57135;51.992;4.476;2022-10-16T15:13:58;7.06;;;4.66;;
69837;SDS011;57135;51.992;4.476;2022-10-16T15:16:24;7.05;;;4.68;;
69837;SDS011;57135;51.992;4.476;2022-10-16T15:18:49;6.65;;;4.46;;
69837;SDS011;57135;51.992;4.476;2022-10-16T15:21:25;6.86;;;4.53;;
69837;SDS011;57135;51.992;4.476;2022-10-16T15:23:54;7.29;;;4.86;;
69837;SDS011;57135;51.992;4.476;2022-10-16T15:26:22;6.17;;;4.15;;
69837;SDS011;57135;51.992;4.476;2022-10-16T15:28:51;6.39;;;4.24;;
69837;SDS011;57135;51.992;4.476;2022-10-16T15:31:17;7.74;;;5.09;;
69837;SDS011;57135;51.992;4.476;2022-10-16T15:33:43;7.26;;;4.73;;
69837;SDS011;57135;51.992;4.476;2022-10-16T15:36:08;7.23;;;4.69;;
69837;SDS011;57135;51.992;4.476;2022-10-16T15:38:34;6.87;;;4.57;;
69837;SDS011;57135;51.992;4.476;2022-10-16T15:41:00;6.72;;;4.50;;
69837;SDS011;57135;51.992;4.476;2022-10-16T15:43:25;6.25;;;4.26;;
69837;SDS011;57135;51.992;4.476;2022-10-16T15:46:01;7.04;;;4.68;;
69837;SDS011;57135;51.992;4.476;2022-10-16T15:48:29;7.31;;;4.76;;
69837;SDS011;57135;51.992;4.476;2022-10-16T15:50:55;7.30;;;4.74;;
69837;SDS011;57135;51.992;4.476;2022-10-16T15:53:21;8.63;;;5.75;;
69837;SDS011;57135;51.992;4.476;2022-10-16T15:55:46;9.72;;;6.80;;
69837;SDS011;57135;51.992;4.476;2022-10-16T15:58:12;6.83;;;4.94;;
69837;SDS011;57135;51.992;4.476;2022-10-16T16:00:37;5.98;;;4.27;;
69837;SDS011;57135;51.992;4.476;2022-10-16T16:03:03;5.91;;;4.26;;
69837;SDS011;57135;51.992;4.476;2022-10-16T16:05:29;5.99;;;4.30;;
69837;SDS011;57135;51.992;4.476;2022-10-16T16:07:54;6.08;;;4.27;;
69837;SDS011;57135;51.992;4.476;2022-10-16T16:10:20;5.80;;;4.13;;
69837;SDS011;57135;51.992;4.476;2022-10-16T16:12:49;6.42;;;4.56;;
69837;SDS011;57135;51.992;4.476;2022-10-16T16:15:17;7.00;;;4.87;;
69837;SDS011;57135;51.992;4.476;2022-10-16T16:17:47;7.48;;;5.27;;
69837;SDS011;57135;51.992;4.476;2022-10-16T16:20:13;8.12;;;5.81;;
69837;SDS011;57135;51.992;4.476;2022-10-16T16:22:38;7.62;;;5.68;;
69837;SDS011;57135;51.992;4.476;2022-10-16T16:25:04;6.68;;;5.15;;
69837;SDS011;57135;51.992;4.476;2022-10-16T16:27:30;6.51;;;4.93;;
69837;SDS011;57135;51.992;4.476;2022-10-16T16:29:58;6.92;;;5.21;;
69837;SDS011;57135;51.992;4.476;2022-10-16T16:32:25;8.54;;;6.34;;
69837;SDS011;57135;51.992;4.476;2022-10-16T16:34:50;9.13;;;6.86;;
69837;SDS011;57135;51.992;4.476;2022-10-16T16:37:16;8.80;;;6.88;;
69837;SDS011;57135;51.992;4.476;2022-10-16T16:39:42;20.51;;;19.03;;
69837;SDS011;57135;51.992;4.476;2022-10-16T16:42:07;20.74;;;20.33;;
69837;SDS011;57135;51.992;4.476;2022-10-16T16:44:33;23.84;;;23.52;;
69837;SDS011;57135;51.992;4.476;2022-10-16T16:47:01;30.05;;;28.76;;
69837;SDS011;57135;51.992;4.476;2022-10-16T16:49:27;21.35;;;20.66;;
69837;SDS011;57135;51.992;4.476;2022-10-16T16:51:53;12.21;;;11.80;;
69837;SDS011;57135;51.992;4.476;2022-10-16T16:54:19;9.74;;;9.16;;
69837;SDS011;57135;51.992;4.476;2022-10-16T16:56:44;9.42;;;8.64;;
69837;SDS011;57135;51.992;4.476;2022-10-16T16:59:11;8.59;;;7.89;;
69837;SDS011;57135;51.992;4.476;2022-10-16T17:01:39;8.61;;;8.05;;
69837;SDS011;57135;51.992;4.476;2022-10-16T17:04:05;9.03;;;8.54;;
69837;SDS011;57135;51.992;4.476;2022-10-16T17:06:31;9.29;;;8.71;;
69837;SDS011;57135;51.992;4.476;2022-10-16T17:08:56;8.49;;;8.19;;
69837;SDS011;57135;51.992;4.476;2022-10-16T17:11:24;8.54;;;8.23;;
69837;SDS011;57135;51.992;4.476;2022-10-16T17:13:51;8.72;;;8.42;;
69837;SDS011;57135;51.992;4.476;2022-10-16T17:16:22;7.65;;;7.34;;
69837;SDS011;57135;51.992;4.476;2022-10-16T17:18:52;6.64;;;6.28;;
69837;SDS011;57135;51.992;4.476;2022-10-16T17:21:18;8.34;;;8.03;;
69837;SDS011;57135;51.992;4.476;2022-10-16T17:23:44;7.17;;;6.80;;
69837;SDS011;57135;51.992;4.476;2022-10-16T17:26:11;6.36;;;5.99;;
69837;SDS011;57135;51.992;4.476;2022-10-16T17:28:38;7.47;;;7.02;;
69837;SDS011;57135;51.992;4.476;2022-10-16T17:31:08;7.53;;;7.09;;
69837;SDS011;57135;51.992;4.476;2022-10-16T17:33:35;7.43;;;7.04;;
69837;SDS011;57135;51.992;4.476;2022-10-16T17:36:00;7.12;;;6.73;;
69837;SDS011;57135;51.992;4.476;2022-10-16T17:38:25;6.57;;;6.30;;
69837;SDS011;57135;51.992;4.476;2022-10-16T17:40:51;6.29;;;5.95;;
69837;SDS011;57135;51.992;4.476;2022-10-16T17:43:16;7.04;;;6.49;;
69837;SDS011;57135;51.992;4.476;2022-10-16T17:45:42;6.97;;;6.52;;
69837;SDS011;57135;51.992;4.476;2022-10-16T17:48:07;6.72;;;6.11;;
69837;SDS011;57135;51.992;4.476;2022-10-16T17:50:33;5.84;;;5.31;;
69837;SDS011;57135;51.992;4.476;2022-10-16T17:52:58;5.78;;;5.38;;
69837;SDS011;57135;51.992;4.476;2022-10-16T17:55:24;6.93;;;6.29;;
69837;SDS011;57135;51.992;4.476;2022-10-16T17:57:49;7.15;;;6.60;;
69837;SDS011;57135;51.992;4.476;2022-10-16T18:00:17;7.40;;;6.90;;
69837;SDS011;57135;51.992;4.476;2022-10-16T18:02:43;6.88;;;6.39;;
69837;SDS011;57135;51.992;4.476;2022-10-16T18:05:08;7.61;;;7.20;;
69837;SDS011;57135;51.992;4.476;2022-10-16T18:07:35;10.36;;;10.03;;
69837;SDS011;57135;51.992;4.476;2022-10-16T18:10:01;10.53;;;10.34;;
69837;SDS011;57135;51.992;4.476;2022-10-16T18:12:31;8.68;;;8.53;;
69837;SDS011;57135;51.992;4.476;2022-10-16T18:14:56;11.84;;;11.76;;
69837;SDS011;57135;51.992;4.476;2022-10-16T18:17:22;8.69;;;8.56;;
69837;SDS011;57135;51.992;4.476;2022-10-16T18:19:48;8.50;;;8.36;;
69837;SDS011;57135;51.992;4.476;2022-10-16T18:22:14;6.98;;;6.66;;
69837;SDS011;57135;51.992;4.476;2022-10-16T18:24:39;8.01;;;7.64;;
69837;SDS011;57135;51.992;4.476;2022-10-16T18:27:05;10.10;;;9.66;;
69837;SDS011;57135;51.992;4.476;2022-10-16T18:29:30;8.60;;;8.17;;
69837;SDS011;57135;51.992;4.476;2022-10-16T18:31:55;7.71;;;7.50;;
69837;SDS011;57135;51.992;4.476;2022-10-16T18:34:21;8.04;;;7.56;;
69837;SDS011;57135;51.992;4.476;2022-10-16T18:36:47;7.97;;;7.64;;
69837;SDS011;57135;51.992;4.476;2022-10-16T18:39:12;7.58;;;7.27;;
69837;SDS011;57135;51.992;4.476;2022-10-16T18:41:41;7.11;;;6.98;;
69837;SDS011;57135;51.992;4.476;2022-10-16T18:44:08;7.37;;;7.09;;
69837;SDS011;57135;51.992;4.476;2022-10-16T18:46:35;8.92;;;8.56;;
69837;SDS011;57135;51.992;4.476;2022-10-16T18:49:01;10.73;;;10.53;;
69837;SDS011;57135;51.992;4.476;2022-10-16T18:51:32;12.63;;;12.37;;